createdAt,value
2019-03-09T00:00:14.297Z,65.20
2019-03-09T00:02:43.111Z,65.20
2019-03-09T00:05:12.208Z,65.30
2019-03-09T00:07:40.615Z,65.00
2019-03-09T00:10:10.501Z,65.00
2019-03-09T00:12:39.013Z,65.00
2019-03-09T00:15:08.553Z,64.90
2019-03-09T00:17:37.527Z,64.90
2019-03-09T00:20:07.944Z,64.80
2019-03-09T00:22:36.355Z,64.80
2019-03-09T00:25:10.404Z,64.70
2019-03-09T00:27:40.446Z,64.90
2019-03-09T00:30:11.309Z,64.90
2019-03-09T00:32:39.804Z,64.70
2019-03-09T00:35:08.261Z,64.70
2019-03-09T00:37:36.701Z,64.60
2019-03-09T00:40:08.075Z,64.60
2019-03-09T00:42:36.832Z,64.30
2019-03-09T00:45:06.037Z,64.40
2019-03-09T00:47:34.464Z,64.40
2019-03-09T00:50:03.079Z,64.40
2019-03-09T00:52:31.508Z,64.30
2019-03-09T00:55:00.031Z,64.70
2019-03-09T00:57:28.588Z,64.60
2019-03-09T00:59:57.985Z,64.40
2019-03-09T01:02:26.972Z,64.30
2019-03-09T01:04:55.709Z,64.30
2019-03-09T01:07:24.196Z,64.20
2019-03-09T01:09:52.660Z,64.00
2019-03-09T01:12:21.318Z,63.90
2019-03-09T01:14:49.746Z,64.00
2019-03-09T01:17:18.491Z,63.80
2019-03-09T01:19:46.927Z,63.90
2019-03-09T01:22:15.345Z,63.50
2019-03-09T01:24:44.106Z,63.70
2019-03-09T01:27:12.715Z,63.80
2019-03-09T01:29:41.411Z,63.70
2019-03-09T01:32:10.125Z,63.80
2019-03-09T01:34:38.659Z,63.60
2019-03-09T01:37:07.085Z,63.80
2019-03-09T01:39:35.804Z,63.90
2019-03-09T01:42:04.296Z,63.80
2019-03-09T01:44:32.701Z,63.80
2019-03-09T01:47:01.166Z,64.00
2019-03-09T01:49:29.594Z,64.00
2019-03-09T01:51:58.015Z,64.20
2019-03-09T01:54:26.452Z,64.10
2019-03-09T01:56:54.931Z,64.30
2019-03-09T01:59:23.332Z,64.40
2019-03-09T02:01:51.823Z,64.50
2019-03-09T02:04:20.659Z,64.50
2019-03-09T02:06:49.101Z,64.60
2019-03-09T02:09:17.744Z,64.80
2019-03-09T02:11:46.138Z,64.60
2019-03-09T02:14:14.563Z,64.80
2019-03-09T02:16:43.226Z,64.80
2019-03-09T02:19:11.727Z,64.80
2019-03-09T02:21:40.277Z,64.90
2019-03-09T02:24:08.743Z,64.90
2019-03-09T02:26:37.199Z,65.10
2019-03-09T02:29:06.730Z,65.30
2019-03-09T02:31:35.410Z,65.30
2019-03-09T02:34:03.818Z,65.40
2019-03-09T02:36:32.323Z,65.70
2019-03-09T02:39:05.243Z,65.70
2019-03-09T02:41:33.679Z,65.60
2019-03-09T02:44:02.101Z,65.70
2019-03-09T02:46:30.716Z,66.00
2019-03-09T02:48:59.145Z,66.20
2019-03-09T02:51:27.806Z,66.40
2019-03-09T02:53:56.337Z,66.60
2019-03-09T02:56:24.748Z,66.50
2019-03-09T02:58:53.163Z,66.50
2019-03-09T03:01:41.120Z,66.60
2019-03-09T03:04:09.530Z,67.00
2019-03-09T03:06:37.961Z,67.30
2019-03-09T03:09:06.989Z,67.30
2019-03-09T03:11:37.309Z,67.30
2019-03-09T03:14:05.822Z,67.20
2019-03-09T03:16:46.150Z,67.20
2019-03-09T03:19:14.557Z,67.30
2019-03-09T03:21:45.249Z,67.10
2019-03-09T03:24:13.370Z,67.30
2019-03-09T03:26:42.017Z,67.60
2019-03-09T03:29:10.426Z,67.70
2019-03-09T03:31:39.087Z,68.00
2019-03-09T03:34:07.540Z,68.60
2019-03-09T03:36:36.235Z,69.60
2019-03-09T03:39:06.526Z,70.70
2019-03-09T03:41:34.945Z,71.30
2019-03-09T03:44:03.493Z,71.60
2019-03-09T03:46:31.928Z,72.00
2019-03-09T03:49:00.615Z,72.90
2019-03-09T03:51:29.302Z,73.40
2019-03-09T03:53:57.720Z,73.70
2019-03-09T03:56:26.272Z,73.60
2019-03-09T03:58:55.047Z,73.80
2019-03-09T04:01:23.825Z,74.10
2019-03-09T04:03:52.469Z,74.30
2019-03-09T04:06:21.415Z,74.80
2019-03-09T04:08:50.159Z,75.30
2019-03-09T04:11:18.993Z,75.50
2019-03-09T04:13:47.489Z,76.00
2019-03-09T04:16:15.894Z,76.00
2019-03-09T04:18:44.292Z,76.30
2019-03-09T04:21:12.716Z,76.40
2019-03-09T04:23:41.186Z,76.60
2019-03-09T04:26:09.716Z,76.80
2019-03-09T04:28:38.138Z,76.90
2019-03-09T04:31:06.589Z,77.00
2019-03-09T04:33:35.066Z,77.20
2019-03-09T04:36:03.720Z,77.00
2019-03-09T04:38:32.133Z,77.10
2019-03-09T04:41:01.386Z,77.30
2019-03-09T04:43:29.798Z,77.40
2019-03-09T04:45:58.444Z,77.70
2019-03-09T04:48:26.825Z,77.70
2019-03-09T04:50:55.452Z,78.10
2019-03-09T04:53:23.893Z,78.30
2019-03-09T04:55:52.290Z,78.70
2019-03-09T04:58:20.936Z,78.90
2019-03-09T05:00:49.375Z,79.10
2019-03-09T05:03:17.801Z,79.20
2019-03-09T05:05:46.195Z,79.30
2019-03-09T05:08:17.759Z,79.50
2019-03-09T05:10:52.087Z,79.60
2019-03-09T05:13:26.544Z,79.80
2019-03-09T05:15:55.219Z,79.80
2019-03-09T05:18:23.615Z,79.60
2019-03-09T05:20:52.075Z,79.70
2019-03-09T05:23:20.474Z,79.80
2019-03-09T05:25:48.882Z,79.80
2019-03-09T05:28:19.758Z,79.80
2019-03-09T05:30:48.391Z,79.80
2019-03-09T05:33:16.791Z,79.70
2019-03-09T05:35:45.289Z,79.50
2019-03-09T05:38:13.705Z,79.40
2019-03-09T05:40:42.347Z,79.40
2019-03-09T05:43:10.780Z,79.20
2019-03-09T05:45:39.243Z,79.10
2019-03-09T05:48:07.672Z,79.20
2019-03-09T05:50:36.373Z,79.20
2019-03-09T05:53:16.823Z,79.00
2019-03-09T05:55:45.251Z,78.80
2019-03-09T05:58:13.646Z,78.50
2019-03-09T06:00:42.973Z,78.30
2019-03-09T06:03:11.456Z,78.30
2019-03-09T06:05:42.564Z,78.30
2019-03-09T06:08:11.222Z,78.10
2019-03-09T06:10:39.682Z,77.90
2019-03-09T06:13:08.132Z,77.90
2019-03-09T06:15:36.545Z,78.00
2019-03-09T06:18:06.414Z,78.00
2019-03-09T06:20:35.617Z,77.90
2019-03-09T06:23:04.331Z,78.10
2019-03-09T06:25:32.766Z,78.00
2019-03-09T06:28:01.166Z,78.00
2019-03-09T06:30:29.592Z,78.30
2019-03-09T06:33:26.509Z,78.40
2019-03-09T06:36:03.822Z,78.30
2019-03-09T06:38:47.572Z,78.30
2019-03-09T06:41:27.660Z,78.10
2019-03-09T06:43:56.093Z,78.20
2019-03-09T06:46:24.720Z,78.20
2019-03-09T06:48:53.140Z,78.40
2019-03-09T06:51:21.682Z,78.20
2019-03-09T06:53:50.085Z,78.30
2019-03-09T06:56:19.042Z,78.20
2019-03-09T06:58:47.477Z,78.20
2019-03-09T07:01:21.592Z,78.20
2019-03-09T07:03:50.391Z,78.20
2019-03-09T07:06:18.902Z,78.10
2019-03-09T07:08:47.577Z,78.30
2019-03-09T07:11:16.066Z,78.10
2019-03-09T07:13:52.453Z,78.10
2019-03-09T07:16:16.411Z,77.70
2019-03-09T07:18:44.830Z,77.70
2019-03-09T07:21:13.566Z,77.50
2019-03-09T07:23:42.187Z,77.20
2019-03-09T07:26:10.604Z,77.20
2019-03-09T07:28:39.296Z,77.20
2019-03-09T07:31:07.687Z,77.30
2019-03-09T07:33:36.089Z,77.30
2019-03-09T07:36:04.719Z,77.10
2019-03-09T07:38:33.104Z,77.10
2019-03-09T07:41:01.497Z,77.00
2019-03-09T07:43:29.924Z,76.50
2019-03-09T07:45:58.339Z,76.50
2019-03-09T07:48:26.740Z,76.10
2019-03-09T07:50:55.429Z,75.70
2019-03-09T07:53:24.062Z,75.70
2019-03-09T07:55:52.460Z,75.20
2019-03-09T07:58:21.429Z,75.40
2019-03-09T08:00:50.165Z,75.50
2019-03-09T08:03:18.582Z,75.50
2019-03-09T08:05:47.005Z,75.40
2019-03-09T08:08:15.411Z,75.40
2019-03-09T08:10:43.808Z,75.30
2019-03-09T08:13:12.488Z,75.60
2019-03-09T08:15:40.893Z,75.50
2019-03-09T08:18:09.544Z,74.90
2019-03-09T08:20:38.421Z,74.90
2019-03-09T08:23:07.061Z,74.80
2019-03-09T08:25:35.451Z,74.20
2019-03-09T08:28:04.126Z,73.30
2019-03-09T08:30:32.532Z,73.00
2019-03-09T08:33:00.956Z,72.70
2019-03-09T08:35:29.398Z,72.20
2019-03-09T08:37:57.797Z,71.90
2019-03-09T08:40:26.504Z,71.50
2019-03-09T08:42:56.954Z,71.90
2019-03-09T08:45:25.601Z,71.80
2019-03-09T08:47:54.303Z,71.30
2019-03-09T08:50:23.375Z,71.50
2019-03-09T08:52:51.846Z,71.50
2019-03-09T08:55:20.501Z,71.40
2019-03-09T08:57:48.983Z,71.40
2019-03-09T09:00:25.382Z,70.70
2019-03-09T09:02:54.301Z,70.70
2019-03-09T09:05:22.889Z,70.30
2019-03-09T09:07:51.335Z,70.50
2019-03-09T09:10:19.902Z,70.40
2019-03-09T09:12:48.372Z,70.30
2019-03-09T09:15:17.713Z,70.40
2019-03-09T09:17:46.293Z,70.30
2019-03-09T09:20:25.490Z,70.70
2019-03-09T09:22:54.243Z,70.50
2019-03-09T09:25:22.716Z,70.40
2019-03-09T09:27:52.241Z,69.70
2019-03-09T09:30:23.105Z,69.70
2019-03-09T09:32:51.819Z,69.60
2019-03-09T09:35:20.374Z,69.90
2019-03-09T09:37:48.960Z,70.00
2019-03-09T09:40:27.605Z,70.00
2019-03-09T09:42:56.381Z,70.20
2019-03-09T09:45:25.228Z,70.10
2019-03-09T09:47:53.901Z,70.10
2019-03-09T09:50:22.582Z,70.00
2019-03-09T09:52:51.063Z,70.10
2019-03-09T09:55:20.147Z,69.80
2019-03-09T09:57:48.770Z,69.80
2019-03-09T10:00:19.798Z,69.30
2019-03-09T10:02:48.421Z,69.10
2019-03-09T10:05:16.940Z,69.00
2019-03-09T10:07:45.473Z,68.90
2019-03-09T10:10:19.254Z,68.50
2019-03-09T10:12:49.287Z,68.00
2019-03-09T10:15:26.695Z,68.10
2019-03-09T10:17:55.138Z,68.10
2019-03-09T10:20:23.789Z,67.60
2019-03-09T10:23:03.094Z,67.70
2019-03-09T10:25:23.295Z,67.00
2019-03-09T10:27:51.689Z,66.40
2019-03-09T10:30:24.964Z,66.20
2019-03-09T10:32:53.840Z,66.20
2019-03-09T10:35:22.308Z,66.10
2019-03-09T10:37:50.783Z,65.20
2019-03-09T10:40:19.347Z,65.40
2019-03-09T10:42:47.993Z,65.10
2019-03-09T10:45:20.360Z,65.10
2019-03-09T10:47:50.089Z,65.10
2019-03-09T10:50:19.589Z,64.60
2019-03-09T10:52:48.451Z,64.40
2019-03-09T10:55:28.867Z,64.80
2019-03-09T10:57:57.583Z,64.40
2019-03-09T11:00:31.347Z,64.90
2019-03-09T11:02:59.821Z,64.50
2019-03-09T11:05:28.485Z,64.40
2019-03-09T11:07:56.995Z,64.20
2019-03-09T11:10:25.543Z,64.50
2019-03-09T11:12:54.018Z,64.60
2019-03-09T11:15:22.743Z,64.70
2019-03-09T11:17:51.414Z,64.90
2019-03-09T11:20:21.299Z,65.30
2019-03-09T11:22:49.706Z,65.50
2019-03-09T11:25:18.237Z,65.60
2019-03-09T11:27:46.639Z,65.60
2019-03-09T11:30:20.688Z,66.60
2019-03-09T11:32:49.327Z,66.80
2019-03-09T11:35:17.881Z,66.70
2019-03-09T11:37:46.388Z,67.20
2019-03-09T11:40:15.109Z,67.40
2019-03-09T11:42:43.577Z,67.30
2019-03-09T11:45:16.904Z,67.50
2019-03-09T11:47:45.406Z,67.50
2019-03-09T11:50:16.197Z,67.90
2019-03-09T11:52:44.882Z,68.00
2019-03-09T11:55:15.434Z,67.50
2019-03-09T11:57:43.899Z,67.60
2019-03-09T12:00:21.129Z,67.60
2019-03-09T12:02:49.521Z,67.70
2019-03-09T12:05:17.918Z,67.50
2019-03-09T12:07:46.379Z,67.50
2019-03-09T12:10:15.507Z,67.20
2019-03-09T12:12:44.144Z,67.10
2019-03-09T12:15:16.826Z,67.10
2019-03-09T12:17:45.285Z,67.30
2019-03-09T12:20:16.826Z,67.40
2019-03-09T12:22:45.927Z,67.40
2019-03-09T12:25:17.945Z,67.50
2019-03-09T12:27:46.620Z,67.60
2019-03-09T12:30:19.135Z,67.70
2019-03-09T12:32:47.707Z,67.70
2019-03-09T12:35:17.454Z,68.30
2019-03-09T12:37:45.870Z,68.10
2019-03-09T12:40:20.941Z,68.20
2019-03-09T12:42:49.573Z,68.40
2019-03-09T12:45:18.519Z,68.20
2019-03-09T12:47:47.227Z,68.20
2019-03-09T12:50:22.609Z,67.30
2019-03-09T12:52:51.245Z,67.50
2019-03-09T12:55:19.661Z,67.40
2019-03-09T12:57:48.112Z,67.00
2019-03-09T13:00:19.171Z,66.60
2019-03-09T13:02:47.808Z,67.30
2019-03-09T13:05:17.514Z,66.70
2019-03-09T13:07:46.019Z,67.10
2019-03-09T13:10:16.064Z,67.50
2019-03-09T13:12:44.675Z,67.50
2019-03-09T13:15:14.172Z,68.00
2019-03-09T13:17:43.837Z,68.20
2019-03-09T13:20:15.310Z,68.20
2019-03-09T13:22:44.043Z,68.30
2019-03-09T13:25:12.945Z,68.60
2019-03-09T13:27:41.829Z,69.80
2019-03-09T13:30:16.271Z,70.30
2019-03-09T13:32:44.747Z,70.90
2019-03-09T13:35:13.560Z,71.30
2019-03-09T13:37:42.238Z,71.70
2019-03-09T13:40:12.098Z,72.10
2019-03-09T13:42:42.524Z,72.70
2019-03-09T13:45:15.887Z,73.50
2019-03-09T13:47:44.370Z,73.80
2019-03-09T13:50:14.672Z,74.60
2019-03-09T13:52:43.307Z,75.40
2019-03-09T13:55:14.029Z,76.10
2019-03-09T13:57:43.744Z,76.50
2019-03-09T14:00:14.737Z,77.50
2019-03-09T14:02:43.374Z,78.00
2019-03-09T14:05:11.839Z,78.40
2019-03-09T14:07:40.597Z,79.10
2019-03-09T14:10:16.143Z,78.50
2019-03-09T14:12:44.869Z,78.30
2019-03-09T14:15:17.186Z,78.50
2019-03-09T14:17:45.661Z,78.50
2019-03-09T14:20:15.441Z,78.80
2019-03-09T14:22:44.142Z,79.00
2019-03-09T14:25:14.776Z,79.50
2019-03-09T14:27:43.433Z,79.60
2019-03-09T14:30:15.106Z,79.10
2019-03-09T14:32:43.663Z,77.50
2019-03-09T14:35:12.310Z,76.60
2019-03-09T14:37:40.854Z,73.50
2019-03-09T14:40:12.284Z,71.80
2019-03-09T14:42:40.749Z,71.90
2019-03-09T14:45:12.637Z,71.70
2019-03-09T14:47:41.067Z,71.20
2019-03-09T14:50:10.167Z,71.30
2019-03-09T14:52:38.566Z,71.60
2019-03-09T14:55:09.171Z,72.00
2019-03-09T14:57:37.866Z,71.40
2019-03-09T15:00:19.018Z,71.30
2019-03-09T15:02:47.401Z,70.80
2019-03-09T15:05:15.891Z,70.40
2019-03-09T15:07:44.379Z,69.00
2019-03-09T15:10:13.964Z,67.50
2019-03-09T15:12:42.447Z,66.60
2019-03-09T15:15:13.588Z,66.40
2019-03-09T15:17:42.227Z,66.20
2019-03-09T15:20:12.852Z,66.10
2019-03-09T15:22:41.589Z,65.80
2019-03-09T15:25:15.827Z,65.90
2019-03-09T15:27:44.432Z,65.90
2019-03-09T15:30:17.882Z,65.50
2019-03-09T15:32:46.307Z,65.00
2019-03-09T15:35:16.305Z,64.80
2019-03-09T15:37:44.875Z,64.40
2019-03-09T15:40:17.631Z,63.90
2019-03-09T15:42:46.503Z,63.50
2019-03-09T15:45:16.627Z,62.70
2019-03-09T15:47:45.523Z,61.60
2019-03-09T15:50:15.586Z,61.10
2019-03-09T15:52:45.170Z,59.00
2019-03-09T15:55:13.793Z,59.00
2019-03-09T15:57:42.602Z,58.50
2019-03-09T16:00:19.593Z,58.80
2019-03-09T16:02:48.583Z,59.20
2019-03-09T16:05:17.473Z,58.60
2019-03-09T16:07:45.875Z,59.10
2019-03-09T16:10:16.320Z,58.60
2019-03-09T16:12:44.975Z,58.50
2019-03-09T16:15:15.335Z,58.60
2019-03-09T16:17:43.798Z,58.00
2019-03-09T16:20:17.779Z,57.80
2019-03-09T16:22:46.402Z,58.10
2019-03-09T16:25:14.904Z,58.40
2019-03-09T16:27:43.383Z,57.90
2019-03-09T16:30:22.836Z,57.70
2019-03-09T16:32:51.771Z,57.20
2019-03-09T16:35:20.524Z,57.60
2019-03-09T16:37:51.506Z,56.80
2019-03-09T16:40:23.662Z,57.00
2019-03-09T16:42:52.076Z,56.60
2019-03-09T16:45:20.746Z,56.00
2019-03-09T16:47:49.222Z,55.60
2019-03-09T16:50:18.378Z,55.80
2019-03-09T16:52:47.182Z,56.00
2019-03-09T16:55:16.119Z,55.20
2019-03-09T16:57:44.626Z,55.50
2019-03-09T17:00:18.652Z,55.70
2019-03-09T17:02:47.430Z,55.50
2019-03-09T17:05:15.870Z,56.10
2019-03-09T17:07:44.618Z,56.00
2019-03-09T17:10:14.856Z,56.60
2019-03-09T17:12:43.291Z,56.70
2019-03-09T17:15:17.404Z,57.20
2019-03-09T17:17:46.718Z,57.70
2019-03-09T17:20:16.582Z,57.60
2019-03-09T17:22:45.349Z,57.70
2019-03-09T17:25:15.469Z,57.40
2019-03-09T17:27:43.963Z,57.00
2019-03-09T17:30:20.213Z,57.00
2019-03-09T17:32:48.798Z,57.30
2019-03-09T17:35:17.445Z,57.00
2019-03-09T17:37:46.157Z,57.10
2019-03-09T17:40:15.621Z,56.90
2019-03-09T17:42:44.045Z,56.80
2019-03-09T17:45:20.564Z,57.10
2019-03-09T17:47:49.211Z,57.20
2019-03-09T17:50:17.766Z,57.20
2019-03-09T17:52:46.244Z,57.50
2019-03-09T17:55:14.734Z,57.70
2019-03-09T17:57:43.452Z,57.70
2019-03-09T18:00:27.556Z,57.90
2019-03-09T18:02:55.989Z,58.20
2019-03-09T18:05:24.775Z,58.30
2019-03-09T18:07:53.709Z,58.50
2019-03-09T18:10:31.381Z,58.60
2019-03-09T18:13:00.207Z,59.00
2019-03-09T18:15:28.615Z,59.30
2019-03-09T18:17:57.043Z,59.40
2019-03-09T18:20:25.554Z,59.50
2019-03-09T18:22:55.092Z,59.40
2019-03-09T18:25:23.504Z,59.30
2019-03-09T18:27:52.183Z,59.20
2019-03-09T18:30:20.626Z,59.30
2019-03-09T18:32:49.234Z,59.30
2019-03-09T18:35:17.653Z,59.40
2019-03-09T18:37:46.324Z,59.50
2019-03-09T18:40:16.055Z,59.40
2019-03-09T18:42:44.754Z,59.30
2019-03-09T18:45:17.635Z,59.50
2019-03-09T18:47:46.046Z,59.60
2019-03-09T18:50:14.808Z,59.30
2019-03-09T18:52:43.582Z,59.40
2019-03-09T18:55:12.055Z,59.40
2019-03-09T18:57:40.740Z,59.50
2019-03-09T19:00:15.272Z,59.50
2019-03-09T19:02:43.762Z,59.50
2019-03-09T19:05:12.531Z,59.70
2019-03-09T19:07:41.671Z,59.60
2019-03-09T19:10:13.080Z,59.60
2019-03-09T19:12:41.760Z,59.40
2019-03-09T19:15:12.722Z,59.20
2019-03-09T19:17:41.119Z,59.00
2019-03-09T19:20:11.966Z,59.10
2019-03-09T19:22:41.561Z,59.10
2019-03-09T19:25:11.898Z,59.10
2019-03-09T19:27:40.577Z,59.10
2019-03-09T19:30:14.826Z,59.10
2019-03-09T19:32:43.221Z,59.30
2019-03-09T19:35:12.181Z,59.70
2019-03-09T19:37:40.825Z,59.90
2019-03-09T19:40:12.026Z,59.80
2019-03-09T19:42:40.690Z,60.10
2019-03-09T19:45:11.648Z,60.30
2019-03-09T19:47:40.058Z,60.40
2019-03-09T19:50:13.679Z,60.40
2019-03-09T19:52:44.363Z,60.50
2019-03-09T19:55:13.431Z,60.50
2019-03-09T19:57:43.063Z,60.30
2019-03-09T20:00:19.648Z,60.20
2019-03-09T20:02:49.158Z,60.20
2019-03-09T20:05:17.573Z,60.00
2019-03-09T20:07:46.212Z,60.30
2019-03-09T20:10:19.560Z,60.20
2019-03-09T20:12:48.141Z,60.30
2019-03-09T20:15:17.694Z,60.20
2019-03-09T20:17:46.211Z,60.30
2019-03-09T20:20:15.668Z,60.50
2019-03-09T20:22:44.300Z,60.50
2019-03-09T20:25:12.875Z,60.40
2019-03-09T20:27:41.296Z,60.40
2019-03-09T20:30:12.787Z,60.50
2019-03-09T20:32:41.459Z,60.60
2019-03-09T20:35:09.858Z,60.70
2019-03-09T20:37:38.500Z,60.60
2019-03-09T20:40:12.190Z,60.60
2019-03-09T20:42:40.597Z,60.80
2019-03-09T20:45:12.154Z,61.10
2019-03-09T20:47:41.029Z,61.30
2019-03-09T20:50:14.698Z,61.50
2019-03-09T20:52:43.343Z,61.50
2019-03-09T20:55:12.245Z,61.70
2019-03-09T20:57:40.713Z,61.70
2019-03-09T21:00:17.012Z,61.50
2019-03-09T21:02:45.419Z,61.50
2019-03-09T21:05:13.975Z,61.50
2019-03-09T21:07:42.497Z,61.80
2019-03-09T21:10:19.407Z,61.70
2019-03-09T21:13:11.140Z,61.90
2019-03-09T21:15:39.558Z,61.90
2019-03-09T21:18:08.355Z,61.80
2019-03-09T21:20:36.795Z,61.90
2019-03-09T21:23:05.265Z,61.70
2019-03-09T21:25:33.678Z,61.50
2019-03-09T21:28:03.275Z,61.50
2019-03-09T21:30:31.688Z,61.30
2019-03-09T21:33:00.183Z,61.00
2019-03-09T21:35:28.643Z,61.00
2019-03-09T21:37:57.055Z,60.90
2019-03-09T21:40:25.467Z,60.50
2019-03-09T21:42:53.909Z,60.60
2019-03-09T21:45:22.310Z,60.30
2019-03-09T21:47:50.817Z,60.10
2019-03-09T21:50:19.345Z,59.90
2019-03-09T21:52:47.982Z,59.90
2019-03-09T21:55:17.019Z,59.90
2019-03-09T21:57:45.461Z,59.90
2019-03-09T22:00:21.641Z,59.60
2019-03-09T22:02:50.704Z,59.50
2019-03-09T22:05:19.677Z,59.50
2019-03-09T22:07:48.399Z,59.40
2019-03-09T22:10:17.063Z,59.40
2019-03-09T22:12:45.470Z,59.50
2019-03-09T22:15:17.776Z,59.50
2019-03-09T22:17:46.200Z,59.20
2019-03-09T22:20:15.165Z,59.20
2019-03-09T22:22:43.722Z,59.10
2019-03-09T22:25:13.310Z,59.10
2019-03-09T22:27:42.016Z,58.80
2019-03-09T22:30:14.626Z,58.70
2019-03-09T22:32:43.513Z,58.50
2019-03-09T22:35:14.056Z,58.70
2019-03-09T22:37:42.689Z,58.50
2019-03-09T22:40:13.464Z,58.50
2019-03-09T22:42:41.991Z,58.50
2019-03-09T22:45:14.367Z,58.70
2019-03-09T22:47:42.869Z,58.80
2019-03-09T22:50:14.447Z,59.00
2019-03-09T22:52:42.853Z,59.00
2019-03-09T22:55:11.536Z,59.10
2019-03-09T22:57:40.157Z,59.20
2019-03-09T23:00:20.468Z,59.10
2019-03-09T23:02:48.875Z,59.00
2019-03-09T23:05:17.673Z,59.60
2019-03-09T23:07:46.108Z,59.30
2019-03-09T23:10:19.555Z,59.60
2019-03-09T23:12:48.195Z,59.60
2019-03-09T23:15:17.959Z,59.70
2019-03-09T23:17:46.789Z,59.70
2019-03-09T23:20:16.338Z,59.60
2019-03-09T23:22:45.398Z,59.60
2019-03-09T23:25:14.328Z,59.70
2019-03-09T23:27:42.736Z,59.80
2019-03-09T23:30:19.036Z,59.90
2019-03-09T23:32:48.108Z,60.00
2019-03-09T23:35:16.848Z,60.10
2019-03-09T23:37:49.183Z,60.10
2019-03-09T23:40:22.482Z,60.10
2019-03-09T23:42:50.928Z,60.30
2019-03-09T23:45:23.617Z,60.50
2019-03-09T23:47:52.467Z,60.60
2019-03-09T23:50:21.015Z,60.70
2019-03-09T23:52:49.734Z,60.90
2019-03-09T23:55:22.394Z,60.90
2019-03-09T23:57:49.147Z,60.90
